Flight Track Log - Related Links

Times and Time Zones

All times are in EDT time to prevent confusion due to time zone crossing. See the N3066W flight status page for this flight to view local times or setup timezone preferences in your user account.

Time Position Orientation Groundspeed Altitude Reporting Facility
EDT Latitude Longitude Course Direction KTS MPH feet Rate Location/Type
Fri 04:35:06 PM 34.2000 -118.3333 202° Southwest 118 136 1,600  Level Southern California TRACON
Fri 04:36:06 PM 34.1667 -118.3500 202° Southwest 129 148 2,900 1,300 Climbing Southern California TRACON
Fri 04:37:06 PM 34.1500 -118.3667 220° Southwest 131 151 4,200 1,219 Climbing Southern California TRACON
Fri 04:38:14 PM 34.1383 -118.4186 255° West 141 162 5,500 1,154 Climbing Los Angeles Center
Fri 04:39:16 PM 34.1733 -118.4372 336° Northwest 140 161 6,700 1,258 Climbing Los Angeles Center
Fri 04:40:18 PM 34.2069 -118.4650 326° Northwest 147 169 8,100 1,210 Climbing Los Angeles Center
Fri 04:41:20 PM 34.2450 -118.4833 338° Northwest 149 171 9,200 1,016 Climbing Los Angeles Center
Fri 04:42:22 PM 34.2853 -118.4989 342° North 155 178 10,200 1,161 Climbing Los Angeles Center
Fri 04:43:24 PM 34.3278 -118.5383 323° Northwest 159 183 11,600 912 Climbing Los Angeles Center
Fri 04:44:27 PM 34.3689 -118.5639 333° Northwest 167 192 12,100 192 Climbing Los Angeles Center
Fri 04:45:29 PM 34.4189 -118.5989 330° Northwest 206 237 12,000 774 Descending Los Angeles Center
Fri 04:46:31 PM 34.4639 -118.6306 330° Northwest 175 201 13,700 968 Climbing Los Angeles Center
Fri 04:47:33 PM 34.5036 -118.6558 332° Northwest 165 190 14,000 194 Climbing Los Angeles Center
Fri 04:48:35 PM 34.5519 -118.6886 331° Northwest 197 227 14,100 823 Climbing Los Angeles Center
Fri 04:49:37 PM 34.6061 -118.7247 331° Northwest 171 197 15,700 968 Climbing Los Angeles Center
Fri 04:50:39 PM 34.6464 -118.7567 327° Northwest 178 205 16,100 435 Climbing Los Angeles Center
Fri 04:51:41 PM 34.6961 -118.7881 333° Northwest 205 236 16,600 677 Climbing Los Angeles Center
Fri 04:52:43 PM 34.7372 -118.8172 330° Northwest 173 199 17,500 581 Climbing Los Angeles Center
Fri 04:53:45 PM 34.7806 -118.8492 329° Northwest 182 209 17,800 240 Climbing Los Angeles Center
Fri 04:54:48 PM 34.8394 -118.8842 334° Northwest 197 227 18,000 96 Climbing Los Angeles Center
Fri 04:55:50 PM 34.8914 -118.9181 332° Northwest 210 242 18,000  Level Los Angeles Center
Fri 04:56:52 PM 34.9425 -118.9469 335° Northwest 212 244 18,000  Level Los Angeles Center
Fri 04:57:54 PM 34.9972 -118.9794 334° Northwest 217 250 18,000  Level Los Angeles Center
Fri 04:58:56 PM 35.0508 -119.0125 333° Northwest 216 249 18,000  Level Los Angeles Center
Fri 04:59:58 PM 35.1158 -119.0514 334° Northwest 216 249 18,000  Level Los Angeles Center
Fri 05:02:02 PM 35.2228 -119.1186 333° Northwest 217 250 18,000  Level Los Angeles Center
Fri 05:03:04 PM 35.2742 -119.1517 332° Northwest 213 245 18,000  Level Los Angeles Center
Fri 05:04:06 PM 35.3289 -119.1858 333° Northwest 218 251 18,000  Level Los Angeles Center
Fri 05:05:09 PM 35.3917 -119.2256 333° Northwest 212 244 18,000  Level Los Angeles Center
Fri 05:06:11 PM 35.4442 -119.2586 333° Northwest 212 244 18,000  Level Los Angeles Center
Fri 05:07:13 PM 35.4978 -119.2911 334° Northwest 213 245 18,000  Level Los Angeles Center
Fri 05:08:15 PM 35.5508 -119.3258 332° Northwest 215 247 18,000  Level Los Angeles Center
Fri 05:09:17 PM 35.6031 -119.3581 333° Northwest 212 244 18,000  Level Los Angeles Center
Fri 05:10:19 PM 35.6667 -119.3986 333° Northwest 215 247 18,000  Level Los Angeles Center
Fri 05:11:21 PM 35.7181 -119.4311 333° Northwest 212 244 18,000  Level Los Angeles Center
Fri 05:12:23 PM 35.7694 -119.4636 333° Northwest 209 241 18,000  Level Los Angeles Center
Fri 05:13:25 PM 35.8217 -119.4961 333° Northwest 211 243 18,000  Level Los Angeles Center
Fri 05:14:27 PM 35.8736 -119.5300 332° Northwest 212 244 18,000  Level Los Angeles Center
Fri 05:15:29 PM 35.9250 -119.5633 332° Northwest 209 241 18,000  Level Los Angeles Center
Fri 05:16:31 PM 35.9836 -119.6108 327° Northwest 212 244 18,000 -336 Level Los Angeles Center
Fri 05:17:34 PM 36.0353 -119.6533 326° Northwest 219 252 17,300 -528 Descending Los Angeles Center
Fri 05:18:36 PM 36.0883 -119.6975 326° Northwest 227 261 16,900 -484 Descending Los Angeles Center
Fri 05:19:38 PM 36.1414 -119.7408 327° Northwest 230 265 16,300 -435 Descending Los Angeles Center
Fri 05:20:40 PM 36.1939 -119.7839 327° Northwest 230 265 16,000 -145 Descending Los Angeles Center
Fri 05:21:42 PM 36.2550 -119.8347 326° Northwest 224 258 16,000  Level Los Angeles Center
Fri 05:22:44 PM 36.3031 -119.8761 325° Northwest 216 249 16,000  Level Los Angeles Center
Fri 05:23:46 PM 36.3517 -119.9150 327° Northwest 213 245 16,000  Level Los Angeles Center
Fri 05:25:00 PM 36.4081 -119.9586 328° Northwest 208 239 16,000  Level Oakland Center
Fri 05:26:02 PM 36.4556 -119.9989 326° Northwest 207 238 16,000  Level Oakland Center
Fri 05:27:03 PM 36.5033 -120.0389 326° Northwest 208 239 16,000  Level Oakland Center
Fri 05:28:05 PM 36.5600 -120.0869 326° Northwest 205 236 16,000  Level Oakland Center
Fri 05:29:07 PM 36.6078 -120.1269 326° Northwest 207 238 16,000  Level Oakland Center
Fri 05:30:08 PM 36.6547 -120.1664 326° Northwest 205 236 16,000  Level Oakland Center
Fri 05:31:10 PM 36.7011 -120.2100 323° Northwest 208 239 16,000  Level Oakland Center
Fri 05:32:12 PM 36.7436 -120.2569 318° Northwest 207 238 16,000 -145 Level Oakland Center
Fri 05:33:14 PM 36.7883 -120.3033 320° Northwest 210 242 15,700 -341 Descending Oakland Center
Fri 05:34:15 PM 36.8378 -120.3569 319° Northwest 221 254 15,300 -390 Descending Oakland Center
Fri 05:35:17 PM 36.8847 -120.4064 320° Northwest 223 257 14,900 -387 Descending Oakland Center
Fri 05:36:19 PM 36.9344 -120.4600 319° Northwest 216 249 14,500 -390 Descending Oakland Center
Fri 05:37:20 PM 36.9847 -120.5133 320° Northwest 221 254 14,100 -390 Descending Oakland Center
Fri 05:38:22 PM 37.0336 -120.5669 319° Northwest 220 253 13,700 -387 Descending Oakland Center
Fri 05:39:24 PM 37.0808 -120.6169 320° Northwest 224 258 13,300 -390 Descending Oakland Center
Fri 05:40:25 PM 37.1289 -120.6683 320° Northwest 227 261 12,900 -390 Descending Oakland Center
Fri 05:41:27 PM 37.1772 -120.7186 320° Northwest 227 261 12,500 -387 Descending Oakland Center
Fri 05:42:29 PM 37.2244 -120.7700 319° Northwest 226 260 12,100 -244 Descending Oakland Center
Fri 05:43:30 PM 37.2739 -120.8200 321° Northwest 227 261 12,000 -49 Descending Oakland Center
Fri 05:44:32 PM 37.3203 -120.8681 321° Northwest 218 251 12,000 -49 Level Oakland Center
Fri 05:45:33 PM 37.3683 -120.9208 319° Northwest 216 249 11,900 -244 Descending Oakland Center
Fri 05:46:35 PM 37.4211 -120.9786 319° Northwest 222 255 11,500 -339 Descending Oakland Center
Fri 05:47:37 PM 37.4603 -121.0400 309° West 223 257 11,200 -293 Descending Oakland Center
Fri 05:48:38 PM 37.5031 -121.0989 312° West 226 260 10,900 -326 Descending Oakland Center
Fri 05:49:46 PM 37.5500 -121.1667 311° West 227 261 10,500 -326 Descending Northern Cal TRACON
Fri 05:50:47 PM 37.6000 -121.2333 313° West 224 258 10,200 -350 Descending Northern Cal TRACON
Fri 05:51:46 PM 37.6333 -121.2833 310° West 216 249 9,800 -454 Descending Northern Cal TRACON
Fri 05:52:46 PM 37.6667 -121.3333 310° West 219 252 9,300 -550 Descending Northern Cal TRACON
Fri 05:53:46 PM 37.7167 -121.4000 313° West 225 259 8,700 -550 Descending Northern Cal TRACON
Fri 05:54:46 PM 37.7500 -121.4667 302° West 229 264 8,200 -350 Descending Northern Cal TRACON
Fri 05:55:46 PM 37.8000 -121.5167 322° Northwest 222 255 8,000 -149 Descending Northern Cal TRACON
Fri 05:56:47 PM 37.8333 -121.5667 310° West 212 244 7,900 -606 Descending Northern Cal TRACON
Fri 05:58:54 PM 37.9106 -121.6878 309° West 206 237 6,100 -603 Descending Oakland Center
Fri 05:59:56 PM 37.9392 -121.7353 307° West 186 214 6,000 -242 Descending Oakland Center
Fri 06:00:58 PM 37.9678 -121.7819 308° West 174 200 5,600 -634 Descending Oakland Center
Fri 06:01:59 PM 37.9706 -121.8419 273° West 179 206 4,700 -1,024 Descending Oakland Center
Fri 06:03:01 PM 37.9706 -121.9139 270° West 174 200 3,500 -968 Descending Oakland Center
Fri 06:04:03 PM 37.9728 -121.9647 273° West 157 181 2,700 -976 Descending Oakland Center
Fri 06:05:04 PM 37.9922 -122.0058 301° West 141 162 1,500 -927 Descending Oakland Center
Fri 06:06:06 PM 38.0097 -122.0406 303° West 126 145 800 -435 Descending Oakland Center
Fri 06:07:08 PM 37.9906 -122.0664 227° Southwest 121 139 600 -194 Descending Oakland Center

Login

Don't have an account? Register now (free) for customized features, flight alerts, and more!